Accueil
METAR-TAF:

METAR-TAF

Aéroports :

Mae Hong Son, Thaïlande

latitude: 19-18N, longitude: 097-50E, altitude: 267 m

Observation

Le bulletin a été fait il y a 4 heures et 20 minutes, à 12:00 UTC
Vent 2 kt de direction variable
Température 31°C
Humidité 24%
Pression 1008 hPa
Visibilité 10 km ou plus
Quelques nuages à une hauteur de 2500 ft

METAR: VTCH 041200Z VRB02KT 9999 FEW025 31/08 Q1008 NOSIG

Heure: 23:20 (16:20 UTC)

Prévision

Le bulletin a été fait il y a 5 heures et 20 minutes, à 11:00 UTC
Prévision valable du 04 à 12 UTC au 05 à 12 UTC
Vent 5 kt de ouest
Visibilité: 6000 m
Quelques nuages à une hauteur de 2500 ft
Evoluant progressivement
du 04 à 23 UTC au 05 à 01 UTC
Vent kt de nord
Visibilité: 2000 m
brume
Evoluant progressivement
du 05 à 04 UTC au 05 à 06 UTC
Vent 5 kt de sud-ouest
Visibilité: 7000 m

TAF: VTCH 041100Z 0412/0512 26005KT 6000 FEW025 BECMG 0423/0501 00000KT 2000 BR BECMG 0504/0506 22005KT 7000 NSW

Observations et prévisions météorologiques de plus de 4000 aéroports (messages METAR et TAF).

Les stations disponibles sont représentées par des disques jaunes et rouges sur la carte.

Passer la souris dessus pour voir le nom de la station.

Cliquer dessus pour voir les observations et prévisions météorologiques.

Pour changer de carte: cliquez sur les boutons verts avec une croix noire pour zoomer, sur le bouton vert avec un tiret pour effectuer un zoom arrière, ou sur les flèches vertes pour les cartes adjacentes.


METAR-TAF: